Time;durP1;ratioP1;P1;durP2;ratioP2;P2;SDS_P1;SDS_P2;PMS_P1;PMS_P2;Temp;Humidity;BMP_temperature;BMP_pressure;BME280_temperature;BME280_humidity;BME280_pressure;Samples;Min_cycle;Max_cycle;Signal;HPM_P1;HPM_P2
2022/03/24 00:02:04;;;;;;;55.45;50.95;;;;;;;-2.90;100.00;101970.22;5005837;28;20518;-79
2022/03/24 00:04:31;;;;;;;62.42;57.00;;;;;;;-2.41;100.00;101974.31;5006978;28;20050;-79
2022/03/24 00:06:58;;;;;;;60.15;55.13;;;;;;;-2.43;100.00;101973.56;5002743;28;20081;-79
2022/03/24 00:09:24;;;;;;;58.03;53.50;;;;;;;-2.56;100.00;101978.66;5008215;28;20054;-79
2022/03/24 00:11:51;;;;;;;63.80;57.17;;;;;;;-2.72;100.00;101968.31;5007764;28;20050;-79
2022/03/24 00:14:19;;;;;;;59.45;53.20;;;;;;;-2.60;100.00;101965.00;5006781;28;20073;-80
2022/03/24 00:16:46;;;;;;;57.03;52.67;;;;;;;-2.82;100.00;101964.56;5006147;28;20049;-80
2022/03/24 00:19:15;;;;;;;64.82;59.00;;;;;;;-2.67;100.00;101960.22;5005749;28;20049;-79
2022/03/24 00:21:42;;;;;;;64.30;58.92;;;;;;;-2.74;100.00;101956.31;5005539;28;20486;-80
2022/03/24 00:24:09;;;;;;;56.08;51.45;;;;;;;-2.56;100.00;101950.88;5002942;28;20073;-80
2022/03/24 00:26:35;;;;;;;61.45;55.03;;;;;;;-2.39;100.00;101949.88;5004584;28;20111;-80
2022/03/24 00:29:03;;;;;;;57.90;53.78;;;;;;;-1.99;100.00;101954.44;5005843;28;20046;-78
2022/03/24 00:31:31;;;;;;;63.90;58.72;;;;;;;-2.67;100.00;101936.81;5005827;28;20062;-78
2022/03/24 00:33:59;;;;;;;89.40;68.32;;;;;;;-2.57;100.00;101941.41;5006065;28;20045;-79
2022/03/24 00:36:26;;;;;;;59.10;53.88;;;;;;;-2.48;100.00;101942.63;5003645;28;20483;-80
2022/03/24 00:38:55;;;;;;;60.05;55.60;;;;;;;-2.73;100.00;101938.00;5005205;28;20498;-80
2022/03/24 00:41:22;;;;;;;59.33;54.92;;;;;;;-2.74;100.00;101938.13;5004774;28;20054;-79
2022/03/24 00:43:49;;;;;;;57.05;52.38;;;;;;;-2.93;100.00;101944.38;4996079;28;20202;-80
2022/03/24 00:46:16;;;;;;;61.30;56.72;;;;;;;-2.58;100.00;101928.47;5002466;28;20128;-78
2022/03/24 00:48:45;;;;;;;61.90;56.58;;;;;;;-2.80;100.00;101932.34;5009638;28;20053;-80
2022/03/24 00:51:11;;;;;;;59.58;54.55;;;;;;;-2.78;100.00;101930.50;5005194;28;20050;-78
2022/03/24 00:53:38;;;;;;;58.08;53.58;;;;;;;-2.93;100.00;101922.75;4997730;28;20465;-79
2022/03/24 00:56:05;;;;;;;67.38;60.78;;;;;;;-2.96;100.00;101925.53;5007226;28;20050;-79
2022/03/24 00:58:31;;;;;;;129.07;82.45;;;;;;;-3.12;100.00;101925.56;5006940;28;20045;-79
2022/03/24 01:00:58;;;;;;;79.88;66.40;;;;;;;-3.57;100.00;101922.88;5005649;28;20394;-80
2022/03/24 01:03:25;;;;;;;69.72;63.65;;;;;;;-3.63;100.00;101922.34;5009507;28;20072;-80
2022/03/24 01:05:53;;;;;;;122.55;79.80;;;;;;;-3.20;100.00;101909.59;5004214;28;20046;-78
2022/03/24 01:08:20;;;;;;;158.25;86.97;;;;;;;-3.29;100.00;101913.53;5010924;28;20092;-79
2022/03/24 01:10:48;;;;;;;83.30;63.45;;;;;;;-3.54;100.00;101906.25;5001018;28;20054;-79
2022/03/24 01:13:16;;;;;;;445.33;161.85;;;;;;;-3.31;100.00;101907.56;5005068;28;20120;-80
2022/03/24 01:15:45;;;;;;;275.08;110.57;;;;;;;-3.46;100.00;101904.09;5004670;28;20060;-79
2022/03/24 01:18:14;;;;;;;113.70;77.55;;;;;;;-3.61;100.00;101889.34;5003522;28;20050;-78
2022/03/24 01:20:41;;;;;;;130.75;76.85;;;;;;;-3.97;100.00;101896.47;5005294;28;20060;-82
2022/03/24 01:23:11;;;;;;;100.30;71.82;;;;;;;-3.54;100.00;101888.06;5008986;28;20065;-80
2022/03/24 01:25:41;;;;;;;109.13;68.25;;;;;;;-3.80;100.00;101892.13;5011528;28;20060;-80
2022/03/24 01:28:09;;;;;;;99.75;65.45;;;;;;;-3.71;100.00;101894.22;5005160;28;20053;-80
2022/03/24 01:30:38;;;;;;;63.03;56.97;;;;;;;-4.06;100.00;101885.75;4997437;28;20104;-81
2022/03/24 01:33:05;;;;;;;60.63;55.47;;;;;;;-3.76;100.00;101880.66;5006166;28;20514;-78
2022/03/24 01:35:32;;;;;;;65.15;60.08;;;;;;;-3.83;100.00;101887.94;4996184;28;21525;-81
2022/03/24 01:38:00;;;;;;;59.67;55.22;;;;;;;-3.65;100.00;101883.50;5005184;28;20085;-79
2022/03/24 01:40:29;;;;;;;67.47;62.67;;;;;;;-3.74;100.00;101882.25;5005890;28;20052;-79
2022/03/24 01:42:56;;;;;;;57.05;53.20;;;;;;;-3.69;100.00;101875.06;5004058;28;20045;-80
2022/03/24 01:45:22;;;;;;;55.42;51.22;;;;;;;-3.52;100.00;101875.84;5004627;28;20046;-80
2022/03/24 01:47:49;;;;;;;54.22;50.50;;;;;;;-3.76;100.00;101872.88;5004600;28;20068;-79
2022/03/24 01:50:16;;;;;;;60.50;56.40;;;;;;;-3.63;100.00;101865.22;5001600;28;20058;-81
2022/03/24 01:52:44;;;;;;;58.55;54.63;;;;;;;-3.63;100.00;101867.81;5003210;28;20054;-80
2022/03/24 01:55:13;;;;;;;53.75;49.70;;;;;;;-3.67;100.00;101871.53;5003438;28;20056;-79
2022/03/24 01:57:43;;;;;;;60.00;55.40;;;;;;;-3.79;100.00;101865.25;5003720;28;20050;-79
2022/03/24 02:00:11;;;;;;;57.42;53.42;;;;;;;-3.73;100.00;101857.13;5004035;28;20050;-80
2022/03/24 02:02:39;;;;;;;57.25;52.97;;;;;;;-4.02;100.00;101858.75;5004314;28;20459;-80
2022/03/24 02:05:07;;;;;;;54.58;50.15;;;;;;;-4.01;100.00;101856.03;5005844;28;20042;-79
2022/03/24 02:07:34;;;;;;;66.05;60.00;;;;;;;-3.95;100.00;101857.47;5003546;28;20054;-79
2022/03/24 02:10:01;;;;;;;68.00;62.10;;;;;;;-4.02;100.00;101851.78;4999421;28;20117;-79
2022/03/24 02:12:28;;;;;;;66.20;59.72;;;;;;;-4.05;100.00;101859.75;5006320;28;20053;-78
2022/03/24 02:14:58;;;;;;;173.55;79.10;;;;;;;-3.93;100.00;101856.47;5001845;28;20046;-80
2022/03/24 02:17:28;;;;;;;76.78;58.47;;;;;;;-4.24;100.00;101846.91;5005927;28;20479;-80
2022/03/24 02:19:57;;;;;;;132.10;72.50;;;;;;;-3.96;100.00;101850.63;5003246;28;20050;-80
2022/03/24 02:22:26;;;;;;;109.70;68.25;;;;;;;-3.97;100.00;101851.50;5010887;28;20085;-79
2022/03/24 02:24:53;;;;;;;64.90;59.67;;;;;;;-4.47;100.00;101847.31;5007984;28;20116;-80
2022/03/24 02:27:22;;;;;;;140.10;79.80;;;;;;;-4.29;100.00;101846.31;5006731;28;20127;-80
2022/03/24 02:29:49;;;;;;;65.03;58.47;;;;;;;-3.96;100.00;101845.44;5000855;28;20503;-78
2022/03/24 02:32:18;;;;;;;63.22;58.20;;;;;;;-4.37;100.00;101848.47;5005548;28;20058;-78
2022/03/24 02:34:48;;;;;;;211.65;100.07;;;;;;;-4.32;100.00;101841.31;5003085;28;20104;-80
2022/03/24 02:37:17;;;;;;;142.70;81.97;;;;;;;-4.42;100.00;101838.38;5005156;28;20053;-80
2022/03/24 02:39:47;;;;;;;110.97;66.65;;;;;;;-4.37;100.00;101840.69;5001444;28;20109;-80
2022/03/24 02:42:15;;;;;;;89.78;67.47;;;;;;;-4.27;100.00;101846.22;5001109;28;20050;-80
2022/03/24 02:44:43;;;;;;;67.55;60.70;;;;;;;-4.08;100.00;101840.91;5005536;28;20394;-79
2022/03/24 02:47:11;;;;;;;62.53;56.58;;;;;;;-4.26;100.00;101840.97;5004009;28;20464;-79
2022/03/24 02:49:39;;;;;;;72.95;60.92;;;;;;;-4.69;100.00;101840.66;5010280;28;20054;-80
2022/03/24 02:52:07;;;;;;;83.22;61.20;;;;;;;-4.23;100.00;101827.00;5008642;28;20086;-80
2022/03/24 02:54:35;;;;;;;76.72;55.60;;;;;;;-4.33;100.00;101826.63;5002178;28;20068;-80
2022/03/24 02:57:04;;;;;;;71.18;59.42;;;;;;;-4.43;100.00;101828.06;5005938;28;20054;-78
2022/03/24 02:59:31;;;;;;;72.45;58.88;;;;;;;-4.28;100.00;101826.41;5009063;28;20042;-79
2022/03/24 03:02:13;;;;;;;69.70;59.70;;;;;;;-4.02;100.00;101827.59;5110632;23;20053;-80
2022/03/24 03:04:41;;;;;;;74.50;56.92;;;;;;;-4.25;100.00;101823.66;5021967;28;20045;-80
2022/03/24 03:07:08;;;;;;;62.22;56.42;;;;;;;-4.21;100.00;101827.75;5024318;28;20054;-80
2022/03/24 03:09:37;;;;;;;74.60;66.43;;;;;;;-4.38;100.00;101815.69;5024107;28;20486;-79
2022/03/24 03:12:09;;;;;;;68.70;61.53;;;;;;;-4.29;100.00;101816.97;5031353;28;20115;-78
2022/03/24 03:14:36;;;;;;;74.05;62.72;;;;;;;-4.39;100.00;101814.00;5020748;28;20056;-79
2022/03/24 03:17:03;;;;;;;78.07;70.38;;;;;;;-4.39;100.00;101816.59;5027391;28;20050;-79
2022/03/24 03:19:29;;;;;;;81.80;73.65;;;;;;;-4.31;100.00;101811.00;5026769;28;20075;-77
2022/03/24 03:21:57;;;;;;;70.68;58.75;;;;;;;-4.12;100.00;101810.84;5030609;28;20551;-80
2022/03/24 03:24:24;;;;;;;77.70;58.50;;;;;;;-4.20;100.00;101812.09;5036640;28;20473;-80
2022/03/24 03:26:52;;;;;;;88.43;66.90;;;;;;;-4.49;100.00;101812.84;5030661;28;20462;-79
2022/03/24 03:29:22;;;;;;;90.03;69.72;;;;;;;-4.12;100.00;101810.84;5022884;28;20207;-79
2022/03/24 03:31:50;;;;;;;129.18;77.43;;;;;;;-4.08;100.00;101814.97;5029100;28;20482;-80
2022/03/24 03:34:17;;;;;;;77.82;63.67;;;;;;;-4.27;100.00;101805.56;5024043;28;20461;-80
2022/03/24 03:36:44;;;;;;;69.25;62.72;;;;;;;-4.07;100.00;101814.03;5024130;28;20450;-80
2022/03/24 03:39:11;;;;;;;75.47;67.78;;;;;;;-4.08;100.00;101808.00;5023935;28;20057;-80
2022/03/24 03:41:39;;;;;;;75.72;67.57;;;;;;;-4.07;100.00;101809.66;5019671;28;20108;-79
2022/03/24 03:44:07;;;;;;;64.00;57.47;;;;;;;-4.30;100.00;101803.13;5016590;28;20136;-80
2022/03/24 03:46:36;;;;;;;70.32;63.70;;;;;;;-4.12;100.00;101803.06;5016507;28;20133;-78
2022/03/24 03:49:03;;;;;;;70.57;63.20;;;;;;;-4.51;100.00;101807.72;5022471;28;20062;-81
2022/03/24 03:51:31;;;;;;;67.00;61.22;;;;;;;-4.31;100.00;101800.63;5021975;28;20050;-80
2022/03/24 03:53:59;;;;;;;61.05;55.78;;;;;;;-4.81;100.00;101799.81;5017168;28;20470;-80
2022/03/24 03:56:25;;;;;;;56.63;51.60;;;;;;;-4.43;100.00;101797.78;5029748;28;20061;-80
2022/03/24 03:58:52;;;;;;;53.72;48.97;;;;;;;-4.31;100.00;101796.28;5028394;28;20405;-79
2022/03/24 04:01:19;;;;;;;60.25;55.28;;;;;;;-4.39;100.00;101793.25;5019185;28;20057;-79
2022/03/24 04:03:48;;;;;;;64.55;58.90;;;;;;;-4.46;100.00;101795.34;5021819;28;20437;-80
2022/03/24 04:06:15;;;;;;;54.58;50.22;;;;;;;-4.39;100.00;101796.72;5018985;28;20426;-79
2022/03/24 04:08:43;;;;;;;55.38;51.25;;;;;;;-4.48;100.00;101791.16;5034418;28;20115;-80
2022/03/24 04:11:12;;;;;;;52.50;47.88;;;;;;;-4.40;100.00;101796.78;5027550;28;20123;-79
2022/03/24 04:13:40;;;;;;;56.33;51.42;;;;;;;-4.47;100.00;101791.09;5022169;28;20137;-78
2022/03/24 04:16:11;;;;;;;60.03;53.72;;;;;;;-4.46;100.00;101791.91;5024685;28;20395;-77
2022/03/24 04:18:38;;;;;;;54.30;48.55;;;;;;;-4.53;100.00;101796.59;5021023;28;20050;-78
2022/03/24 04:21:07;;;;;;;52.75;47.88;;;;;;;-4.48;100.00;101791.16;5027741;28;20049;-79
2022/03/24 04:23:34;;;;;;;50.47;45.60;;;;;;;-4.58;100.00;101790.81;5018920;28;20049;-80
2022/03/24 04:26:01;;;;;;;50.45;45.65;;;;;;;-4.58;100.00;101793.41;5025048;28;20059;-79
2022/03/24 04:28:28;;;;;;;56.67;50.97;;;;;;;-4.50;100.00;101787.81;5020776;28;20494;-79
2022/03/24 04:30:55;;;;;;;62.20;54.58;;;;;;;-4.62;100.00;101795.31;5027790;28;20490;-78
2022/03/24 04:33:21;;;;;;;62.97;52.70;;;;;;;-4.40;100.00;101789.00;5025349;28;20379;-79
2022/03/24 04:35:48;;;;;;;52.80;47.55;;;;;;;-4.31;100.00;101790.25;5022179;28;20054;-79
2022/03/24 04:38:16;;;;;;;54.65;48.40;;;;;;;-4.21;100.00;101787.06;5024399;28;20115;-78
2022/03/24 04:40:43;;;;;;;61.28;53.53;;;;;;;-4.30;100.00;101784.97;5022713;28;20054;-79
2022/03/24 04:43:10;;;;;;;62.20;51.88;;;;;;;-4.19;100.00;101777.44;5025293;28;20536;-80
2022/03/24 04:45:37;;;;;;;58.10;51.30;;;;;;;-3.86;100.00;101784.28;5025904;28;20050;-79
2022/03/24 04:48:04;;;;;;;55.53;48.85;;;;;;;-3.88;100.00;101787.88;5025110;28;20045;-79
2022/03/24 04:50:31;;;;;;;56.13;50.22;;;;;;;-3.64;100.00;101789.06;5027457;28;20049;-80
2022/03/24 04:52:59;;;;;;;56.33;50.33;;;;;;;-3.48;100.00;101792.47;5027692;28;20053;-79
2022/03/24 04:55:27;;;;;;;54.05;48.22;;;;;;;-3.52;100.00;101785.78;5029490;28;20127;-79
2022/03/24 04:57:54;;;;;;;53.72;47.72;;;;;;;-3.27;100.00;101784.34;5023803;28;20050;-80
2022/03/24 05:00:21;;;;;;;56.80;50.88;;;;;;;-3.18;100.00;101781.19;5024779;28;20077;-78
2022/03/24 05:02:48;;;;;;;59.97;51.25;;;;;;;-3.00;100.00;101784.47;5025320;28;20061;-80
2022/03/24 05:05:16;;;;;;;55.53;49.22;;;;;;;-2.92;100.00;101784.03;5026696;28;20370;-79
2022/03/24 05:07:43;;;;;;;57.80;51.08;;;;;;;-2.83;100.00;101781.69;5023988;28;20409;-80
2022/03/24 05:10:11;;;;;;;61.70;52.83;;;;;;;-2.64;100.00;101778.81;5019841;28;20053;-79
2022/03/24 05:12:40;;;;;;;95.72;60.78;;;;;;;-2.79;100.00;101780.56;5024081;28;20105;-80
2022/03/24 05:15:10;;;;;;;95.47;60.97;;;;;;;-2.70;100.00;101784.38;5027205;28;20140;-79
2022/03/24 05:17:37;;;;;;;84.55;60.35;;;;;;;-2.57;100.00;101785.31;5023219;28;20049;-79
2022/03/24 05:20:04;;;;;;;124.78;69.70;;;;;;;-2.15;100.00;101787.91;4905676;28;20093;-80
2022/03/24 05:22:30;;;;;;;62.03;52.53;;;;;;;-2.18;100.00;101781.16;5016274;28;20111;-80
2022/03/24 05:24:57;;;;;;;55.22;48.92;;;;;;;-1.82;100.00;101779.72;5020121;28;20506;-79
2022/03/24 05:27:24;;;;;;;54.90;49.58;;;;;;;-1.96;100.00;101778.00;5023687;28;20049;-79
2022/03/24 05:29:52;;;;;;;56.28;50.65;;;;;;;-1.94;100.00;101777.91;5015304;28;20049;-80
2022/03/24 05:32:19;;;;;;;56.17;50.25;;;;;;;-1.92;100.00;101776.88;5020640;28;20477;-79
2022/03/24 05:34:46;;;;;;;53.40;47.97;;;;;;;-1.46;100.00;101770.41;5031736;28;20048;-80
2022/03/24 05:37:14;;;;;;;56.25;50.53;;;;;;;-1.15;100.00;101769.19;5028739;28;20136;-78
2022/03/24 05:39:41;;;;;;;57.95;51.60;;;;;;;-0.94;100.00;101774.72;5018007;28;20421;-80
2022/03/24 05:42:08;;;;;;;57.88;51.97;;;;;;;-0.83;100.00;101772.22;5028048;28;20061;-79
2022/03/24 05:44:35;;;;;;;55.50;49.90;;;;;;;-0.27;100.00;101763.97;5027517;28;20046;-79
2022/03/24 05:47:04;;;;;;;52.10;47.33;;;;;;;0.06;100.00;101758.06;5024651;28;20490;-80
2022/03/24 05:49:31;;;;;;;54.60;48.47;;;;;;;0.44;100.00;101759.63;5018642;28;20058;-80
2022/03/24 05:51:57;;;;;;;58.47;52.55;;;;;;;0.44;100.00;101767.47;5025669;28;20123;-78
2022/03/24 05:54:24;;;;;;;60.65;54.08;;;;;;;0.94;100.00;101767.19;5017377;28;20057;-79
2022/03/24 05:56:51;;;;;;;60.47;54.33;;;;;;;0.80;100.00;101763.88;5031642;28;20051;-77
2022/03/24 05:59:18;;;;;;;77.95;70.97;;;;;;;1.17;100.00;101770.66;5024070;28;20111;-79
2022/03/24 06:01:46;;;;;;;79.47;72.90;;;;;;;1.41;100.00;101773.16;5028598;28;20041;-79
2022/03/24 06:04:23;;;;;;;81.82;74.40;;;;;;;1.70;100.00;101774.31;4958078;28;20141;-81
2022/03/24 06:06:53;;;;;;;90.95;82.38;;;;;;;2.09;100.00;101764.22;5006622;28;20535;-79
2022/03/24 06:09:21;;;;;;;90.93;82.60;;;;;;;2.34;100.00;101752.53;5006466;28;20049;-80
2022/03/24 06:11:48;;;;;;;92.40;83.65;;;;;;;2.71;100.00;101770.44;4999920;28;20124;-80
2022/03/24 06:14:15;;;;;;;91.00;82.47;;;;;;;3.36;100.00;101768.41;5010174;28;20406;-80
2022/03/24 06:16:42;;;;;;;94.65;86.45;;;;;;;3.60;100.00;101765.44;5007774;28;20075;-80
2022/03/24 06:19:10;;;;;;;96.95;87.75;;;;;;;4.11;100.00;101761.75;4981733;28;20050;-78
2022/03/24 06:21:38;;;;;;;85.20;77.32;;;;;;;4.51;100.00;101750.28;5024871;28;20049;-77
2022/03/24 06:24:06;;;;;;;88.95;80.38;;;;;;;5.20;100.00;101743.81;5030537;28;20088;-77
2022/03/24 06:26:33;;;;;;;89.60;80.72;;;;;;;6.31;88.02;101747.13;5028769;28;20046;-81
2022/03/24 06:29:01;;;;;;;86.63;78.72;;;;;;;6.67;82.63;101742.63;5029849;28;20116;-80
2022/03/24 06:31:28;;;;;;;81.63;74.68;;;;;;;6.74;78.60;101748.91;5026682;28;20049;-80
2022/03/24 06:33:55;;;;;;;79.40;73.03;;;;;;;6.93;76.83;101745.25;5025040;28;20137;-79
2022/03/24 06:36:21;;;;;;;82.05;75.65;;;;;;;7.22;77.03;101752.00;5031985;28;20041;-79
2022/03/24 06:38:49;;;;;;;81.10;74.28;;;;;;;7.49;73.75;101741.19;5032932;28;20057;-78
2022/03/24 06:41:16;;;;;;;79.05;72.45;;;;;;;7.45;73.62;101752.25;5028293;28;20556;-79
2022/03/24 06:43:43;;;;;;;79.95;73.97;;;;;;;7.51;72.33;101741.03;5031863;28;20103;-77
2022/03/24 06:46:10;;;;;;;84.47;78.05;;;;;;;7.55;71.06;101751.13;5033356;28;20053;-78
2022/03/24 06:48:37;;;;;;;82.40;75.75;;;;;;;7.75;71.59;101746.38;5029046;28;20045;-81
2022/03/24 06:51:04;;;;;;;82.32;75.47;;;;;;;7.76;70.51;101747.22;5029617;28;20537;-80
2022/03/24 06:53:31;;;;;;;86.75;79.22;;;;;;;7.72;69.32;101736.13;5030246;28;20099;-79
2022/03/24 06:55:59;;;;;;;85.15;78.28;;;;;;;7.62;71.63;101739.91;5029293;28;20103;-80
2022/03/24 06:58:26;;;;;;;83.72;76.95;;;;;;;7.98;69.58;101741.28;5023709;28;20069;-80
2022/03/24 07:00:53;;;;;;;84.28;77.20;;;;;;;8.13;68.83;101730.88;5030011;28;20467;-77
2022/03/24 07:03:21;;;;;;;88.68;81.40;;;;;;;8.20;70.47;101739.84;5026051;28;20065;-81
2022/03/24 07:05:47;;;;;;;84.50;77.30;;;;;;;8.25;67.43;101737.50;5026178;28;20474;-78
2022/03/24 07:08:14;;;;;;;79.57;72.85;;;;;;;7.92;71.02;101728.72;5030443;28;20367;-79
2022/03/24 07:10:41;;;;;;;77.53;71.07;;;;;;;8.28;69.26;101736.34;5026753;28;20050;-80
2022/03/24 07:13:09;;;;;;;74.57;68.28;;;;;;;8.29;68.96;101739.81;5019504;28;20060;-77
2022/03/24 07:15:36;;;;;;;80.40;73.70;;;;;;;8.10;71.02;101735.69;5025176;28;20111;-80
2022/03/24 07:18:03;;;;;;;85.78;78.80;;;;;;;8.87;68.45;101736.97;5024798;28;20045;-77
2022/03/24 07:20:30;;;;;;;87.57;80.70;;;;;;;8.76;69.23;101739.16;5021313;28;20061;-78
2022/03/24 07:23:00;;;;;;;81.90;75.40;;;;;;;9.32;66.67;101739.94;5024004;28;20046;-79
2022/03/24 07:25:28;;;;;;;81.43;75.20;;;;;;;8.41;68.53;101731.44;5019940;28;20516;-79
2022/03/24 07:27:54;;;;;;;84.20;77.80;;;;;;;8.53;68.14;101739.00;5026389;28;20053;-79
2022/03/24 07:30:23;;;;;;;85.38;78.25;;;;;;;8.87;67.42;101739.63;5024487;28;20441;-79
2022/03/24 07:32:49;;;;;;;89.53;82.10;;;;;;;9.17;65.44;101737.22;5029997;28;20105;-81
2022/03/24 07:35:18;;;;;;;77.07;70.97;;;;;;;8.93;66.34;101740.75;5023508;28;20104;-81
2022/03/24 07:37:46;;;;;;;79.40;72.57;;;;;;;8.99;67.26;101747.22;5031704;28;20057;-79
2022/03/24 07:40:14;;;;;;;77.15;70.57;;;;;;;8.79;68.50;101742.28;5024951;28;20053;-77
2022/03/24 07:42:42;;;;;;;86.95;79.38;;;;;;;9.16;62.95;101744.31;5028075;28;20053;-80
2022/03/24 07:45:09;;;;;;;81.90;75.20;;;;;;;9.15;64.65;101744.50;5028527;28;20132;-80
2022/03/24 07:48:06;;;;;;;83.15;76.63;;;;;;;8.62;65.51;101741.50;5027187;28;20042;-79
2022/03/24 07:50:32;;;;;;;87.53;80.32;;;;;;;8.44;68.09;101733.75;5029599;28;20053;-78
2022/03/24 07:53:06;;;;;;;87.03;79.75;;;;;;;9.21;64.93;101743.00;5029959;28;20111;-79
2022/03/24 07:55:32;;;;;;;82.00;74.90;;;;;;;9.47;65.18;101740.03;5030802;28;20050;-79
2022/03/24 07:57:59;;;;;;;79.32;72.60;;;;;;;8.80;65.92;101738.63;5031832;28;20064;-79
2022/03/24 08:00:26;;;;;;;82.65;75.38;;;;;;;10.17;64.05;101723.19;5026809;28;20493;-77
2022/03/24 08:02:55;;;;;;;79.72;72.30;;;;;;;9.83;63.87;101746.47;5028454;28;20049;-80
2022/03/24 08:05:22;;;;;;;79.38;72.20;;;;;;;9.78;64.20;101745.34;5020020;28;20441;-77
2022/03/24 08:07:49;;;;;;;82.45;75.75;;;;;;;9.37;65.43;101741.06;5027892;28;20565;-80
2022/03/24 08:10:16;;;;;;;89.80;81.95;;;;;;;9.07;64.59;101745.34;5025383;28;20046;-80
2022/03/24 08:12:43;;;;;;;79.78;73.32;;;;;;;9.34;64.35;101743.25;5028568;28;20049;-80
2022/03/24 08:15:10;;;;;;;82.55;75.40;;;;;;;10.36;64.81;101737.81;5025443;28;20046;-79
2022/03/24 08:17:36;;;;;;;84.50;76.80;;;;;;;9.82;63.95;101744.81;5029049;28;20053;-79
2022/03/24 08:20:06;;;;;;;87.13;79.53;;;;;;;10.30;63.16;101729.56;5028547;28;20049;-79
2022/03/24 08:22:33;;;;;;;88.53;81.28;;;;;;;10.06;63.87;101727.88;5026573;28;20041;-81
2022/03/24 08:25:00;;;;;;;89.25;82.03;;;;;;;10.39;62.92;101726.84;5031644;28;20053;-79
2022/03/24 08:27:26;;;;;;;90.95;83.50;;;;;;;8.88;65.23;101725.38;5032474;28;20050;-79
2022/03/24 08:29:53;;;;;;;86.75;79.50;;;;;;;7.97;70.65;101728.25;5031818;28;20481;-80
2022/03/24 08:32:20;;;;;;;81.05;74.22;;;;;;;9.51;66.97;101725.44;5032340;28;20103;-79
2022/03/24 08:34:47;;;;;;;87.28;79.70;;;;;;;10.57;64.83;101715.88;5035331;28;20045;-79
2022/03/24 08:37:15;;;;;;;88.70;81.53;;;;;;;9.32;66.29;101721.38;5030929;28;20045;-81
2022/03/24 08:39:42;;;;;;;82.45;75.82;;;;;;;8.87;66.90;101709.66;5019663;28;20128;-78
2022/03/24 08:42:08;;;;;;;79.85;73.40;;;;;;;10.23;64.27;101703.88;5028578;28;20049;-79
2022/03/24 08:44:35;;;;;;;83.47;76.18;;;;;;;10.88;61.72;101713.88;5028131;28;20065;-79
2022/03/24 08:47:02;;;;;;;85.40;78.32;;;;;;;10.63;65.79;101710.66;5025207;28;20383;-79
2022/03/24 08:49:29;;;;;;;79.35;72.95;;;;;;;10.25;64.26;101700.00;5030428;28;20125;-78
2022/03/24 08:51:56;;;;;;;82.93;76.07;;;;;;;11.55;62.52;101709.38;5030628;28;20046;-79
2022/03/24 08:54:24;;;;;;;84.03;77.15;;;;;;;11.61;62.96;101704.09;5033214;28;20064;-81
2022/03/24 08:56:51;;;;;;;81.47;75.10;;;;;;;11.18;59.75;101698.72;5027274;28;20540;-79
2022/03/24 08:59:18;;;;;;;84.65;77.63;;;;;;;11.95;61.75;101704.47;5025840;28;20413;-79
2022/03/24 09:01:45;;;;;;;88.72;81.22;;;;;;;11.54;61.41;101700.56;5026578;28;20045;-79
2022/03/24 09:04:12;;;;;;;84.72;77.63;;;;;;;11.69;63.17;101690.69;5027724;28;20057;-79
2022/03/24 09:06:39;;;;;;;78.93;72.10;;;;;;;11.70;58.93;101688.84;5035210;28;20054;-80
2022/03/24 09:09:06;;;;;;;80.20;73.38;;;;;;;11.09;60.66;101693.69;5026431;28;20054;-81
2022/03/24 09:11:34;;;;;;;82.18;74.88;;;;;;;11.23;63.77;101682.22;5034521;28;20053;-79
2022/03/24 09:14:01;;;;;;;81.80;75.30;;;;;;;10.99;63.88;101673.53;5029779;28;20046;-79
2022/03/24 09:16:28;;;;;;;80.10;73.70;;;;;;;10.33;62.91;101672.59;5022690;28;20042;-79
2022/03/24 09:18:54;;;;;;;91.43;83.70;;;;;;;11.77;62.55;101670.28;5033724;28;20084;-78
2022/03/24 09:21:22;;;;;;;88.75;81.93;;;;;;;12.25;60.22;101658.00;5034625;28;20050;-79
2022/03/24 09:23:49;;;;;;;78.13;72.13;;;;;;;12.41;55.71;101662.25;5037152;28;20064;-79
2022/03/24 09:26:16;;;;;;;81.05;74.75;;;;;;;9.61;61.90;101649.94;5031090;28;20041;-79
2022/03/24 09:28:44;;;;;;;74.65;68.95;;;;;;;10.69;62.50;101658.63;5034238;28;20119;-80
2022/03/24 09:31:11;;;;;;;81.40;74.57;;;;;;;11.45;61.55;101651.97;5028748;28;20049;-78
2022/03/24 09:33:38;;;;;;;78.47;72.47;;;;;;;10.74;61.68;101656.22;5025851;28;20426;-79
2022/03/24 09:36:06;;;;;;;79.97;73.75;;;;;;;10.64;60.51;101640.56;5028147;28;20060;-79
2022/03/24 09:38:33;;;;;;;86.85;79.22;;;;;;;11.99;61.42;101644.53;5033904;28;20111;-79
2022/03/24 09:41:00;;;;;;;76.40;70.65;;;;;;;10.28;61.64;101643.09;5023563;28;20057;-78
2022/03/24 09:43:28;;;;;;;75.50;69.88;;;;;;;10.39;61.84;101633.88;5026263;28;20453;-80
2022/03/24 09:45:57;;;;;;;81.40;75.60;;;;;;;11.73;59.66;101642.41;5029356;28;20540;-79
2022/03/24 09:48:23;;;;;;;74.45;68.85;;;;;;;11.79;57.19;101634.47;5022369;28;20045;-79
2022/03/24 09:50:50;;;;;;;77.70;70.88;;;;;;;11.97;61.81;101626.06;5024259;28;20449;-79
2022/03/24 09:53:18;;;;;;;80.38;73.78;;;;;;;9.75;62.38;101624.47;5034235;28;20045;-81
2022/03/24 09:55:47;;;;;;;84.82;77.72;;;;;;;11.18;58.58;101620.78;5034881;28;20056;-79
2022/03/24 09:58:14;;;;;;;80.95;74.15;;;;;;;14.79;51.55;101620.13;5031746;28;20477;-82
2022/03/24 10:00:41;;;;;;;78.68;72.05;;;;;;;13.32;54.54;101627.41;5022840;28;20116;-80
2022/03/24 10:03:12;;;;;;;82.38;75.05;;;;;;;13.40;52.44;101615.69;5026699;28;20061;-80
2022/03/24 10:05:54;;;;;;;82.05;75.18;;;;;;;14.19;50.23;101606.88;5023528;28;20145;-79
2022/03/24 10:08:21;;;;;;;83.65;76.75;;;;;;;13.75;50.29;101611.84;5020525;28;20474;-80
2022/03/24 10:10:48;;;;;;;94.38;86.45;;;;;;;15.58;48.19;101608.13;5022791;28;20112;-80
2022/03/24 10:13:24;;;;;;;88.55;80.78;;;;;;;14.49;49.89;101598.38;5029246;28;20057;-79
2022/03/24 10:15:51;;;;;;;86.20;78.85;;;;;;;13.15;51.03;101602.09;5028254;28;20060;-79
2022/03/24 10:18:19;;;;;;;87.15;79.50;;;;;;;15.84;44.54;101593.75;5026129;28;20045;-82
2022/03/24 10:20:46;;;;;;;94.50;86.85;;;;;;;13.11;49.38;101599.00;5031026;28;20061;-79
2022/03/24 10:23:13;;;;;;;86.75;79.45;;;;;;;14.89;47.37;101591.09;5029149;28;20041;-79
2022/03/24 10:25:42;;;;;;;87.97;80.55;;;;;;;17.23;45.66;101585.97;5032628;28;20045;-80
2022/03/24 10:28:11;;;;;;;85.18;78.22;;;;;;;13.68;48.19;101579.00;5044166;28;20076;-79
2022/03/24 10:30:49;;;;;;;94.30;86.45;;;;;;;13.10;49.74;101588.53;5031631;28;20049;-79
2022/03/24 10:33:32;;;;;;;86.25;78.88;;;;;;;11.24;55.92;101580.97;5021190;28;20456;-81
2022/03/24 10:36:08;;;;;;;86.30;79.25;;;;;;;17.72;45.60;101573.22;5021506;28;20049;-79
2022/03/24 10:38:36;;;;;;;88.38;81.85;;;;;;;16.01;43.80;101564.56;5029683;28;20136;-79
2022/03/24 10:41:13;;;;;;;85.90;79.20;;;;;;;15.14;47.61;101568.94;5033182;28;20061;-79
2022/03/24 10:43:47;;;;;;;78.65;72.32;;;;;;;15.74;47.35;101551.41;5000522;28;20045;-82
2022/03/24 10:46:16;;;;;;;88.38;81.68;;;;;;;17.01;41.15;101561.53;5026877;28;20132;-80
2022/03/24 10:48:45;;;;;;;85.72;78.72;;;;;;;17.28;41.06;101553.91;5029654;28;20532;-79
2022/03/24 10:51:11;;;;;;;92.47;85.30;;;;;;;16.61;41.17;101555.81;5029453;28;20127;-80
2022/03/24 10:53:40;;;;;;;94.55;86.93;;;;;;;18.46;39.98;101540.47;5039052;28;20468;-79
2022/03/24 10:56:12;;;;;;;92.35;85.35;;;;;;;18.22;38.47;101542.41;5037606;28;20127;-78
2022/03/24 10:58:43;;;;;;;76.45;70.65;;;;;;;18.19;37.17;101545.56;5027052;28;20455;-79
2022/03/24 11:01:14;;;;;;;79.32;73.43;;;;;;;18.62;41.18;101544.28;5031668;28;20123;-79
2022/03/24 11:03:43;;;;;;;81.22;74.75;;;;;;;19.82;36.53;101539.66;5027845;28;20484;-81
2022/03/24 11:06:13;;;;;;;79.32;73.10;;;;;;;18.09;37.09;101538.06;5032785;28;20049;-80
2022/03/24 11:08:40;;;;;;;77.45;71.38;;;;;;;20.04;34.55;101534.28;5031890;28;20118;-78
2022/03/24 11:11:08;;;;;;;85.63;78.95;;;;;;;19.63;34.30;101525.56;5026640;28;20132;-80